createdAt,value
2022-11-03T00:00:13.011Z,101122.47
2022-11-03T00:02:45.936Z,101107.94
2022-11-03T00:05:36.340Z,101106.75
2022-11-03T00:08:09.090Z,101106.72
2022-11-03T00:10:43.349Z,101109.84
2022-11-03T00:13:16.244Z,101113.75
2022-11-03T00:15:49.892Z,101113.44
2022-11-03T00:18:22.647Z,101118.59
2022-11-03T00:21:00.048Z,101109.16
2022-11-03T00:23:34.664Z,101108.38
2022-11-03T00:26:11.250Z,101100.84
2022-11-03T00:28:46.085Z,101096.53
2022-11-03T00:31:21.065Z,101102.09
2022-11-03T00:33:55.423Z,101094.97
2022-11-03T00:36:30.265Z,101094.94
2022-11-03T00:39:06.062Z,101101.34
2022-11-03T00:41:40.812Z,101101.25
2022-11-03T00:44:13.592Z,101089.50
2022-11-03T00:46:46.331Z,101094.19
2022-11-03T00:49:19.318Z,101087.88
2022-11-03T00:51:52.019Z,101086.34
2022-11-03T00:54:24.766Z,101085.19
2022-11-03T00:56:58.858Z,101091.13
2022-11-03T00:59:31.773Z,101076.53
2022-11-03T01:02:04.740Z,101087.47
2022-11-03T01:04:55.303Z,101072.94
2022-11-03T01:07:28.106Z,101068.59
2022-11-03T01:10:00.950Z,101057.19
2022-11-03T01:12:35.139Z,101067.38
2022-11-03T01:15:08.725Z,101060.41
2022-11-03T01:17:41.841Z,101050.91
2022-11-03T01:20:15.551Z,101051.03
2022-11-03T01:22:48.268Z,101044.69
2022-11-03T01:25:21.260Z,101050.19
2022-11-03T01:27:55.471Z,101049.47
2022-11-03T01:30:28.561Z,101056.53
2022-11-03T01:33:01.066Z,101054.13
2022-11-03T01:35:33.843Z,101040.28
2022-11-03T01:38:06.552Z,101043.09
2022-11-03T01:40:39.295Z,101035.31
2022-11-03T01:43:21.089Z,101028.22
2022-11-03T01:46:01.847Z,101026.66
2022-11-03T01:48:36.714Z,101023.81
2022-11-03T01:51:13.553Z,101029.00
2022-11-03T01:53:49.460Z,101022.72
2022-11-03T01:56:23.685Z,101009.34
2022-11-03T01:58:57.784Z,101012.13
2022-11-03T02:01:31.935Z,101006.13
2022-11-03T02:04:10.324Z,101006.06
2022-11-03T02:06:44.119Z,101008.09
2022-11-03T02:09:16.937Z,100983.97
2022-11-03T02:12:08.076Z,100997.00
2022-11-03T02:14:46.213Z,100974.22
2022-11-03T02:17:21.806Z,100969.50
2022-11-03T02:19:58.855Z,100969.91
2022-11-03T02:22:44.556Z,100968.28
2022-11-03T02:25:30.310Z,100969.09
2022-11-03T02:28:03.763Z,100978.56
2022-11-03T02:30:42.324Z,100969.88
2022-11-03T02:33:27.556Z,100955.34
2022-11-03T02:36:07.920Z,100941.97
2022-11-03T02:38:47.146Z,100936.06
2022-11-03T02:41:23.133Z,100937.69
2022-11-03T02:43:57.636Z,100921.88
2022-11-03T02:46:32.796Z,100919.16
2022-11-03T02:49:05.855Z,100909.72
2022-11-03T02:51:39.004Z,100908.94
2022-11-03T02:54:17.443Z,100906.97
2022-11-03T02:56:54.343Z,100914.06
2022-11-03T02:59:30.092Z,100914.44
2022-11-03T03:02:07.834Z,100907.47
2022-11-03T03:04:44.434Z,100895.59
2022-11-03T03:07:20.880Z,100894.44
2022-11-03T03:10:00.168Z,100889.28
2022-11-03T03:12:37.634Z,100899.91
2022-11-03T03:15:11.265Z,100895.59
2022-11-03T03:17:50.298Z,100889.72
2022-11-03T03:20:27.510Z,100890.50
2022-11-03T03:23:06.239Z,100872.38
2022-11-03T03:25:50.105Z,100870.50
2022-11-03T03:28:27.115Z,100870.00
2022-11-03T03:31:06.133Z,100867.69
2022-11-03T03:33:42.114Z,100873.16
2022-11-03T03:36:20.721Z,100877.13
2022-11-03T03:38:56.963Z,100864.53
2022-11-03T03:41:32.783Z,100869.25
2022-11-03T03:44:09.329Z,100871.69
2022-11-03T03:46:47.640Z,100859.81
2022-11-03T03:49:20.722Z,100860.56
2022-11-03T03:51:53.233Z,100859.78
2022-11-03T03:54:25.918Z,100853.88
2022-11-03T03:57:02.866Z,100860.19
2022-11-03T03:59:36.986Z,100854.28
2022-11-03T04:02:10.323Z,100855.47
2022-11-03T04:04:43.313Z,100841.69
2022-11-03T04:07:35.840Z,100834.66
2022-11-03T04:10:12.097Z,100842.13
2022-11-03T04:13:03.189Z,100834.31
2022-11-03T04:15:55.100Z,100829.59
2022-11-03T04:18:45.829Z,100828.78
2022-11-03T04:21:36.214Z,100824.41
2022-11-03T04:24:09.112Z,100823.59
2022-11-03T04:26:42.111Z,100832.69
2022-11-03T04:29:16.026Z,100818.91
2022-11-03T04:31:50.217Z,100825.22
2022-11-03T04:34:23.788Z,100819.72
2022-11-03T04:36:56.877Z,100818.53
2022-11-03T04:39:29.946Z,100805.53
2022-11-03T04:42:02.591Z,100809.50
2022-11-03T04:44:35.387Z,100790.59
2022-11-03T04:47:14.064Z,100802.78
2022-11-03T04:49:48.538Z,100796.09
2022-11-03T04:52:23.202Z,100789.03
2022-11-03T04:54:56.070Z,100787.44
2022-11-03T04:57:29.275Z,100785.94
2022-11-03T05:00:02.122Z,100774.09
2022-11-03T05:02:36.266Z,100774.84
2022-11-03T05:05:17.788Z,100771.72
2022-11-03T05:07:53.314Z,100768.22
2022-11-03T05:10:28.697Z,100761.09
2022-11-03T05:13:01.865Z,100751.28
2022-11-03T05:15:37.133Z,100751.31
2022-11-03T05:18:18.722Z,100748.16
2022-11-03T05:20:54.869Z,100745.75
2022-11-03T05:23:31.867Z,100746.16
2022-11-03T05:26:06.607Z,100733.97
2022-11-03T05:28:42.482Z,100728.06
2022-11-03T05:31:23.816Z,100723.38
2022-11-03T05:34:01.000Z,100722.22
2022-11-03T05:36:34.558Z,100720.66
2022-11-03T05:39:30.359Z,100712.34
2022-11-03T05:42:16.180Z,100713.91
2022-11-03T05:44:50.947Z,100711.94
2022-11-03T05:47:27.093Z,100711.94
2022-11-03T05:50:14.877Z,100720.25
2022-11-03T05:52:49.274Z,100711.16
2022-11-03T05:55:27.172Z,100702.88
2022-11-03T05:58:02.206Z,100708.78
2022-11-03T06:00:47.079Z,100697.00
2022-11-03T06:03:25.918Z,100698.94
2022-11-03T06:06:01.129Z,100700.91
2022-11-03T06:08:39.063Z,100687.94
2022-11-03T06:11:22.429Z,100686.03
2022-11-03T06:13:58.554Z,100681.72
2022-11-03T06:16:40.048Z,100679.69
2022-11-03T06:19:22.247Z,100668.72
2022-11-03T06:21:59.170Z,100672.63
2022-11-03T06:24:33.898Z,100679.34
2022-11-03T06:27:06.763Z,100669.13
2022-11-03T06:29:39.693Z,100667.13
2022-11-03T06:32:14.287Z,100659.25
2022-11-03T06:34:50.000Z,100664.00
2022-11-03T06:37:26.859Z,100655.34
2022-11-03T06:40:03.027Z,100649.41
2022-11-03T06:42:35.706Z,100646.69
2022-11-03T06:45:16.593Z,100649.81
2022-11-03T06:47:49.933Z,100646.69
2022-11-03T06:50:26.233Z,100639.22
2022-11-03T06:53:04.277Z,100643.94
2022-11-03T06:55:39.259Z,100631.72
2022-11-03T06:58:17.950Z,100634.09
2022-11-03T07:00:51.912Z,100638.44
2022-11-03T07:03:28.896Z,100625.44
2022-11-03T07:06:12.914Z,100634.88
2022-11-03T07:08:49.409Z,100632.53
2022-11-03T07:11:24.964Z,100627.00
2022-11-03T07:13:59.126Z,100635.28
2022-11-03T07:16:35.814Z,100641.19
2022-11-03T07:19:15.122Z,100643.16
2022-11-03T07:21:50.208Z,100630.16
2022-11-03T07:24:27.978Z,100635.69
2022-11-03T07:27:03.565Z,100634.09
2022-11-03T07:29:36.279Z,100636.47
2022-11-03T07:32:17.156Z,100638.81
2022-11-03T07:34:53.392Z,100641.19
2022-11-03T07:37:27.376Z,100620.72
2022-11-03T07:40:01.398Z,100625.47
2022-11-03T07:42:34.303Z,100623.91
2022-11-03T07:45:34.425Z,100611.28
2022-11-03T07:48:20.098Z,100610.50
2022-11-03T07:50:55.086Z,100597.91
2022-11-03T07:53:37.482Z,100592.78
2022-11-03T07:56:20.309Z,100583.72
2022-11-03T07:58:56.813Z,100575.88
2022-11-03T08:01:32.418Z,100573.50
2022-11-03T08:04:08.130Z,100551.88
2022-11-03T08:06:40.914Z,100554.63
2022-11-03T08:09:13.727Z,100543.59
2022-11-03T08:11:48.281Z,100551.47
2022-11-03T08:14:21.223Z,100539.63
2022-11-03T08:16:53.896Z,100534.13
2022-11-03T08:19:26.627Z,100525.47
2022-11-03T08:21:59.358Z,100532.94
2022-11-03T08:24:32.119Z,100519.97
2022-11-03T08:27:06.235Z,100519.94
2022-11-03T08:29:39.045Z,100519.97
2022-11-03T08:32:11.775Z,100510.47
2022-11-03T08:34:44.573Z,100514.41
2022-11-03T08:37:17.271Z,100503.75
2022-11-03T08:39:49.993Z,100497.88
2022-11-03T08:42:25.068Z,100495.47
2022-11-03T08:44:59.199Z,100510.41
2022-11-03T08:47:31.919Z,100491.91
2022-11-03T08:50:05.961Z,100500.16
2022-11-03T08:52:39.718Z,100491.91
2022-11-03T08:55:12.491Z,100483.22
2022-11-03T08:57:47.320Z,100478.06
2022-11-03T09:00:20.260Z,100477.66
2022-11-03T09:02:52.924Z,100470.22
2022-11-03T09:05:25.811Z,100469.38
2022-11-03T09:10:52.442Z,100474.13
2022-11-03T09:13:26.601Z,100465.78
2022-11-03T09:15:59.295Z,100459.88
2022-11-03T09:18:33.992Z,100454.38
2022-11-03T09:21:07.321Z,100446.44
2022-11-03T09:23:40.245Z,100446.00
2022-11-03T09:26:12.986Z,100441.28
2022-11-03T09:28:47.114Z,100429.94
2022-11-03T09:31:20.885Z,100433.06
2022-11-03T09:33:53.612Z,100429.94
2022-11-03T09:36:26.377Z,100414.19
2022-11-03T09:38:59.292Z,100420.41
2022-11-03T09:41:55.859Z,100407.00
2022-11-03T09:44:27.858Z,100411.69
2022-11-03T09:47:00.879Z,100399.50
2022-11-03T09:49:34.034Z,100403.81
2022-11-03T09:52:07.097Z,100385.75
2022-11-03T09:54:40.066Z,100379.41
2022-11-03T09:57:14.459Z,100368.38
2022-11-03T09:59:50.836Z,100379.34
2022-11-03T10:02:27.580Z,100374.72
2022-11-03T10:05:08.233Z,100361.69
2022-11-03T10:07:44.368Z,100358.91
2022-11-03T10:10:19.737Z,100355.72
2022-11-03T10:12:53.341Z,100359.19
2022-11-03T10:15:28.468Z,100350.19
2022-11-03T10:18:01.553Z,100343.06
2022-11-03T10:20:34.220Z,100345.81
2022-11-03T10:23:07.429Z,100354.06
2022-11-03T10:25:42.369Z,100353.19
2022-11-03T10:28:18.692Z,100346.09
2022-11-03T10:31:11.380Z,100352.41
2022-11-03T10:33:53.918Z,100340.44
2022-11-03T10:36:28.330Z,100342.00
2022-11-03T10:39:19.361Z,100327.75
2022-11-03T10:41:58.566Z,100319.00
2022-11-03T10:44:31.666Z,100312.59
2022-11-03T10:47:06.828Z,100315.81
2022-11-03T10:49:43.727Z,100313.31
2022-11-03T10:52:21.161Z,100314.16
2022-11-03T10:54:57.857Z,100314.88
2022-11-03T10:57:30.543Z,100304.50
2022-11-03T11:00:05.034Z,100310.41
2022-11-03T11:02:43.355Z,100298.38
2022-11-03T11:05:20.132Z,100289.59
2022-11-03T11:07:54.496Z,100278.91
2022-11-03T11:10:29.866Z,100285.53
2022-11-03T11:13:05.751Z,100272.09
2022-11-03T11:15:41.777Z,100261.31
2022-11-03T11:19:10.938Z,100257.44
2022-11-03T11:22:15.639Z,100252.47
2022-11-03T11:25:01.732Z,100232.81
2022-11-03T11:27:59.614Z,100235.03
2022-11-03T11:31:23.503Z,100231.13
2022-11-03T11:34:29.575Z,100226.84
2022-11-03T11:37:35.661Z,100221.81
2022-11-03T11:40:14.372Z,100199.94
2022-11-03T11:43:33.109Z,100198.38
2022-11-03T11:46:40.699Z,100187.38
2022-11-03T11:49:18.475Z,100187.97
2022-11-03T11:51:52.388Z,100172.19
2022-11-03T11:54:26.527Z,100172.22
2022-11-03T11:56:59.603Z,100151.44
2022-11-03T11:59:32.567Z,100153.31
2022-11-03T12:02:18.631Z,100158.06
2022-11-03T12:04:55.824Z,100162.66
2022-11-03T12:07:33.485Z,100172.31
2022-11-03T12:10:15.490Z,100156.53
2022-11-03T12:12:48.225Z,100148.75
2022-11-03T12:15:49.560Z,100145.38
2022-11-03T12:18:40.780Z,100146.41
2022-11-03T12:21:35.370Z,100127.59
2022-11-03T12:24:22.894Z,100121.00
2022-11-03T12:26:59.523Z,100110.00
2022-11-03T12:29:32.314Z,100103.22
2022-11-03T12:32:04.969Z,100100.09
2022-11-03T12:34:37.630Z,100096.84
2022-11-03T12:37:11.157Z,100096.78
2022-11-03T12:39:43.918Z,100084.88
2022-11-03T12:42:19.964Z,100091.75
2022-11-03T12:44:52.663Z,100089.50
2022-11-03T12:47:25.434Z,100082.75
2022-11-03T12:49:58.191Z,100081.41
2022-11-03T12:52:31.103Z,100071.00
2022-11-03T12:55:03.981Z,100063.00
2022-11-03T12:57:38.023Z,100051.72
2022-11-03T13:00:12.595Z,100036.75
2022-11-03T13:02:45.400Z,100040.59
2022-11-03T13:05:18.405Z,100034.47
2022-11-03T13:07:50.975Z,100022.22
2022-11-03T13:10:23.663Z,100026.03
2022-11-03T13:12:57.829Z,100021.81
2022-11-03T13:15:30.567Z,100007.59
2022-11-03T13:18:18.630Z,100009.75
2022-11-03T13:20:51.433Z,100007.19
2022-11-03T13:23:24.161Z,100006.81
2022-11-03T13:25:56.977Z,99997.41
2022-11-03T13:28:31.382Z,100002.16
2022-11-03T13:31:04.062Z,99999.25
2022-11-03T13:33:36.916Z,99994.94
2022-11-03T13:36:09.735Z,100000.09
2022-11-03T13:38:42.664Z,100001.28
2022-11-03T13:41:15.361Z,99989.19
2022-11-03T13:43:49.480Z,99976.66
2022-11-03T13:46:22.174Z,99980.88
2022-11-03T13:51:47.622Z,99955.03
2022-11-03T14:00:09.253Z,99954.97
2022-11-03T14:05:41.542Z,99939.81
2022-11-03T14:08:14.317Z,99935.78
2022-11-03T14:10:47.091Z,99934.13
2022-11-03T14:13:18.814Z,99908.91
2022-11-03T14:15:53.362Z,99902.94
2022-11-03T14:18:26.006Z,99888.78
2022-11-03T14:20:58.689Z,99887.19
2022-11-03T14:23:31.554Z,99897.56
2022-11-03T14:26:21.349Z,99901.34
2022-11-03T14:28:56.850Z,99886.50
2022-11-03T14:31:30.945Z,99886.50
2022-11-03T14:34:03.941Z,99877.88
2022-11-03T14:36:36.758Z,99875.63
2022-11-03T14:39:09.500Z,99888.31
2022-11-03T14:42:00.035Z,99881.81
2022-11-03T14:44:33.503Z,99870.78
2022-11-03T14:47:08.977Z,99870.09
2022-11-03T14:49:42.385Z,99844.72
2022-11-03T14:52:16.673Z,99847.97
2022-11-03T14:54:50.227Z,99843.47
2022-11-03T14:57:22.941Z,99839.84
2022-11-03T14:59:55.978Z,99840.19
2022-11-03T15:02:30.060Z,99837.00
2022-11-03T15:05:03.335Z,99837.09
2022-11-03T15:07:36.001Z,99836.38
2022-11-03T15:10:09.456Z,99822.16
2022-11-03T15:12:42.439Z,99817.75
2022-11-03T15:15:15.319Z,99807.97
2022-11-03T15:17:49.538Z,99805.63
2022-11-03T15:20:22.562Z,99805.47
2022-11-03T15:25:48.065Z,99787.50
2022-11-03T15:28:21.260Z,99791.94
2022-11-03T15:30:54.044Z,99793.41
2022-11-03T15:33:28.646Z,99796.34
2022-11-03T15:36:01.646Z,99788.72
2022-11-03T15:38:34.410Z,99783.47
2022-11-03T15:41:19.535Z,99784.28
2022-11-03T15:43:52.269Z,99771.19
2022-11-03T15:46:26.097Z,99779.41
2022-11-03T15:49:00.603Z,99764.31
2022-11-03T15:51:33.800Z,99755.75
2022-11-03T15:54:06.594Z,99766.88
2022-11-03T15:56:39.324Z,99755.84
2022-11-03T15:59:12.135Z,99759.97
2022-11-03T16:01:44.936Z,99753.09
2022-11-03T16:04:18.987Z,99739.94
2022-11-03T16:07:07.371Z,99749.13
2022-11-03T16:09:41.021Z,99748.91
2022-11-03T16:12:14.490Z,99757.28
2022-11-03T16:14:47.302Z,99754.81
2022-11-03T16:17:22.467Z,99753.69
2022-11-03T16:19:56.766Z,99752.41
2022-11-03T16:22:30.009Z,99754.03
2022-11-03T16:25:04.661Z,99748.84
2022-11-03T16:27:39.189Z,99751.47
2022-11-03T16:30:12.714Z,99737.41
2022-11-03T16:32:45.806Z,99744.69
2022-11-03T16:35:19.810Z,99741.44
2022-11-03T16:37:52.923Z,99740.47
2022-11-03T16:40:25.761Z,99736.78
2022-11-03T16:42:58.504Z,99734.44
2022-11-03T16:45:36.386Z,99729.00
2022-11-03T16:48:10.769Z,99735.09
2022-11-03T16:50:45.410Z,99731.47
2022-11-03T16:53:18.796Z,99737.44
2022-11-03T16:55:51.552Z,99738.63
2022-11-03T16:58:24.580Z,99733.13
2022-11-03T17:00:57.319Z,99730.69
2022-11-03T17:03:30.089Z,99730.78
2022-11-03T17:06:04.267Z,99725.66
2022-11-03T17:08:53.677Z,99723.34
2022-11-03T17:11:39.423Z,99735.50
2022-11-03T17:14:14.463Z,99729.97
2022-11-03T17:16:48.758Z,99723.69
2022-11-03T17:19:21.993Z,99723.06
2022-11-03T17:21:56.061Z,99715.56
2022-11-03T17:24:28.862Z,99712.59
2022-11-03T17:27:05.065Z,99702.00
2022-11-03T17:29:41.581Z,99706.88
2022-11-03T17:32:18.906Z,99712.03
2022-11-03T17:34:51.819Z,99715.84
2022-11-03T17:37:26.912Z,99702.53
2022-11-03T17:39:59.783Z,99704.25
2022-11-03T17:42:32.665Z,99702.72
2022-11-03T17:45:07.560Z,99703.25
2022-11-03T17:47:40.290Z,99706.16
2022-11-03T17:50:16.238Z,99702.72
2022-11-03T17:52:52.170Z,99702.28
2022-11-03T17:55:30.176Z,99690.72
2022-11-03T17:58:04.688Z,99692.38
2022-11-03T18:00:37.654Z,99679.22
2022-11-03T18:03:12.095Z,99695.34
2022-11-03T18:05:44.916Z,99697.38
2022-11-03T18:08:20.143Z,99690.81
2022-11-03T18:10:57.445Z,99687.00
2022-11-03T18:13:34.441Z,99693.56
2022-11-03T18:16:11.076Z,99689.47
2022-11-03T18:18:45.635Z,99691.81
2022-11-03T18:21:23.804Z,99691.53
2022-11-03T18:23:58.820Z,99685.72
2022-11-03T18:26:31.640Z,99681.75
2022-11-03T18:29:04.446Z,99671.59
2022-11-03T18:31:41.212Z,99669.03
2022-11-03T18:34:16.704Z,99687.84
2022-11-03T18:36:50.054Z,99680.94
2022-11-03T18:39:26.455Z,99679.16
2022-11-03T18:41:59.247Z,99688.53
2022-11-03T18:44:32.050Z,99694.16
2022-11-03T18:47:05.089Z,99689.41
2022-11-03T18:49:38.645Z,99681.06
2022-11-03T18:52:15.509Z,99681.84
2022-11-03T18:54:52.188Z,99682.63
2022-11-03T18:57:26.496Z,99677.03
2022-11-03T18:59:59.555Z,99677.13
2022-11-03T19:02:32.331Z,99672.63
2022-11-03T19:05:12.336Z,99680.50
2022-11-03T19:07:49.176Z,99679.69
2022-11-03T19:10:24.565Z,99678.81
2022-11-03T19:12:58.941Z,99678.88
2022-11-03T19:15:35.982Z,99681.91
2022-11-03T19:18:13.929Z,99681.22
2022-11-03T19:20:46.664Z,99676.16
2022-11-03T19:23:19.733Z,99675.81
2022-11-03T19:25:56.920Z,99686.47
2022-11-03T19:28:34.649Z,99690.81
2022-11-03T19:31:10.084Z,99696.66
2022-11-03T19:33:43.818Z,99703.38
2022-11-03T19:36:16.738Z,99707.75
2022-11-03T19:38:50.412Z,99712.47
2022-11-03T19:41:42.138Z,99708.84
2022-11-03T19:44:15.062Z,99701.03
2022-11-03T19:46:48.121Z,99699.06
2022-11-03T19:49:21.846Z,99704.34
2022-11-03T19:51:54.675Z,99708.66
2022-11-03T19:54:27.886Z,99716.09
2022-11-03T19:57:02.027Z,99710.94
2022-11-03T19:59:35.045Z,99715.50
2022-11-03T20:02:09.494Z,99713.16
2022-11-03T20:04:44.534Z,99707.25
2022-11-03T20:07:17.686Z,99706.03
2022-11-03T20:09:50.651Z,99713.94
2022-11-03T20:12:27.448Z,99735.25
2022-11-03T20:15:04.505Z,99730.19
2022-11-03T20:17:37.516Z,99726.53
2022-11-03T20:20:14.887Z,99734.44
2022-11-03T20:22:55.807Z,99739.09
2022-11-03T20:25:30.953Z,99742.25
2022-11-03T20:28:16.998Z,99738.22
2022-11-03T20:31:02.294Z,99748.53
2022-11-03T20:33:37.863Z,99756.47
2022-11-03T20:36:15.714Z,99759.25
2022-11-03T20:38:52.500Z,99765.25
2022-11-03T20:41:27.051Z,99759.47
2022-11-03T20:44:01.306Z,99762.75
2022-11-03T20:46:34.968Z,99773.16
2022-11-03T20:49:10.592Z,99778.25
2022-11-03T20:51:49.235Z,99778.69
2022-11-03T20:54:22.733Z,99782.63
2022-11-03T20:56:55.490Z,99782.16
2022-11-03T20:59:32.095Z,99785.75
2022-11-03T21:02:11.955Z,99782.69
2022-11-03T21:04:45.052Z,99783.75
2022-11-03T21:07:17.608Z,99786.63
2022-11-03T21:09:50.380Z,99792.88
2022-11-03T21:12:23.359Z,99807.78
2022-11-03T21:15:30.716Z,99813.72
2022-11-03T21:18:27.669Z,99818.88
2022-11-03T21:21:01.217Z,99827.59
2022-11-03T21:23:37.179Z,99824.44
2022-11-03T21:26:12.993Z,99837.13
2022-11-03T21:28:45.747Z,99839.50
2022-11-03T21:31:19.950Z,99841.03
2022-11-03T21:33:52.694Z,99841.09
2022-11-03T21:36:25.434Z,99844.22
2022-11-03T21:38:58.113Z,99841.16
2022-11-03T21:41:48.631Z,99850.56
2022-11-03T21:44:21.376Z,99847.44
2022-11-03T21:46:55.550Z,99852.09
2022-11-03T21:49:42.570Z,99863.19
2022-11-03T21:52:17.504Z,99867.94
2022-11-03T21:54:50.302Z,99865.53
2022-11-03T21:57:23.069Z,99870.31
2022-11-03T21:59:58.624Z,99862.81
2022-11-03T22:02:33.148Z,99864.41
2022-11-03T22:05:10.759Z,99867.97
2022-11-03T22:07:43.804Z,99872.69
2022-11-03T22:10:17.909Z,99878.28
2022-11-03T22:12:50.781Z,99877.50
2022-11-03T22:15:40.752Z,99886.91
2022-11-03T22:18:14.852Z,99893.19
2022-11-03T22:21:05.426Z,99897.25
2022-11-03T22:23:55.868Z,99894.06
2022-11-03T22:26:46.374Z,99908.25
2022-11-03T22:29:36.572Z,99913.78
2022-11-03T22:32:14.685Z,99924.44
2022-11-03T22:35:06.400Z,99923.22
2022-11-03T22:40:28.931Z,99921.78
2022-11-03T22:43:19.344Z,99924.13
2022-11-03T22:45:52.305Z,99927.28
2022-11-03T22:48:26.955Z,99930.03
2022-11-03T22:51:03.270Z,99932.31
2022-11-03T22:53:55.344Z,99935.91
2022-11-03T22:56:29.653Z,99930.41
2022-11-03T22:59:02.422Z,99930.41
2022-11-03T23:01:36.462Z,99938.28
2022-11-03T23:04:09.542Z,99932.78
2022-11-03T23:06:43.469Z,99946.16
2022-11-03T23:09:16.246Z,99942.28
2022-11-03T23:11:48.923Z,99939.16
2022-11-03T23:14:22.962Z,99948.13
2022-11-03T23:16:55.652Z,99950.19
2022-11-03T23:19:46.142Z,99946.16
2022-11-03T23:22:20.662Z,99951.69
2022-11-03T23:25:01.667Z,99957.19
2022-11-03T23:27:34.321Z,99957.19
2022-11-03T23:30:08.083Z,99961.91
2022-11-03T23:32:40.939Z,99961.97
2022-11-03T23:35:14.639Z,99964.72
2022-11-03T23:37:49.307Z,99969.75
2022-11-03T23:40:22.126Z,99972.44
2022-11-03T23:42:54.876Z,99980.81
2022-11-03T23:45:45.192Z,99985.47
2022-11-03T23:48:35.331Z,99995.31
2022-11-03T23:51:08.141Z,99987.09
2022-11-03T23:53:42.747Z,99992.59
2022-11-03T23:56:35.350Z,99994.94
2022-11-03T23:59:09.470Z,99993.50
